createdAt,value
2018-07-11T00:00:38.423Z,13.05
2018-07-11T00:01:38.456Z,13.07
2018-07-11T00:02:38.489Z,13.10
2018-07-11T00:03:38.523Z,13.04
2018-07-11T00:04:38.582Z,13.08
2018-07-11T00:05:38.585Z,13.12
2018-07-11T00:06:38.619Z,13.00
2018-07-11T00:07:38.651Z,13.10
2018-07-11T00:08:38.683Z,13.04
2018-07-11T00:09:38.715Z,13.14
2018-07-11T00:10:38.750Z,13.19
2018-07-11T00:11:38.779Z,13.29
2018-07-11T00:12:38.812Z,13.22
2018-07-11T00:13:38.846Z,13.38
2018-07-11T00:14:38.882Z,13.30
2018-07-11T00:15:38.910Z,13.49
2018-07-11T00:16:38.943Z,13.45
2018-07-11T00:17:38.974Z,13.39
2018-07-11T00:18:39.007Z,13.38
2018-07-11T00:19:39.038Z,13.30
2018-07-11T00:20:39.071Z,13.36
2018-07-11T00:21:39.104Z,13.33
2018-07-11T00:22:39.136Z,13.30
2018-07-11T00:23:39.169Z,13.36
2018-07-11T00:24:39.201Z,13.49
2018-07-11T00:25:39.233Z,13.38
2018-07-11T00:26:39.265Z,13.42
2018-07-11T00:27:39.297Z,13.30
2018-07-11T00:28:39.329Z,13.20
2018-07-11T00:29:39.361Z,13.20
2018-07-11T00:30:39.394Z,13.22
2018-07-11T00:31:39.426Z,13.15
2018-07-11T00:32:39.458Z,13.15
2018-07-11T00:33:39.491Z,13.17
2018-07-11T00:34:39.523Z,13.23
2018-07-11T00:35:39.557Z,13.15
2018-07-11T00:36:39.588Z,13.07
2018-07-11T00:37:39.622Z,12.93
2018-07-11T00:38:39.652Z,13.01
2018-07-11T00:39:39.683Z,12.95
2018-07-11T00:40:39.717Z,12.83
2018-07-11T00:41:39.749Z,12.82
2018-07-11T00:42:39.782Z,12.86
2018-07-11T00:43:39.813Z,12.68
2018-07-11T00:44:39.845Z,12.60
2018-07-11T00:45:39.877Z,12.60
2018-07-11T00:46:39.911Z,12.60
2018-07-11T00:47:39.942Z,12.57
2018-07-11T00:48:39.974Z,12.68
2018-07-11T00:49:40.007Z,12.85
2018-07-11T00:50:40.039Z,12.93
2018-07-11T00:51:40.069Z,12.90
2018-07-11T00:52:40.103Z,12.86
2018-07-11T00:53:40.135Z,13.04
2018-07-11T00:54:40.167Z,12.96
2018-07-11T00:55:40.205Z,12.95
2018-07-11T00:56:40.234Z,12.89
2018-07-11T00:57:40.265Z,12.92
2018-07-11T00:58:40.295Z,12.95
2018-07-11T00:59:40.326Z,12.90
2018-07-11T01:00:40.358Z,12.90
2018-07-11T01:01:40.392Z,12.95
2018-07-11T01:02:40.423Z,12.93
2018-07-11T01:03:40.453Z,12.86
2018-07-11T01:04:40.487Z,12.86
2018-07-11T01:05:40.519Z,12.72
2018-07-11T01:06:40.554Z,12.64
2018-07-11T01:07:40.584Z,12.45
2018-07-11T01:08:40.646Z,12.34
2018-07-11T01:09:40.647Z,12.37
2018-07-11T01:10:40.679Z,12.38
2018-07-11T01:11:40.710Z,12.39
2018-07-11T01:12:40.742Z,12.45
2018-07-11T01:13:40.774Z,12.41
2018-07-11T01:14:40.806Z,12.34
2018-07-11T01:15:40.838Z,12.35
2018-07-11T01:16:40.870Z,12.56
2018-07-11T01:17:40.902Z,12.57
2018-07-11T01:18:40.935Z,12.59
2018-07-11T01:19:40.966Z,12.59
2018-07-11T01:20:40.998Z,12.56
2018-07-11T01:21:41.030Z,12.59
2018-07-11T01:22:41.061Z,12.59
2018-07-11T01:23:41.094Z,12.49
2018-07-11T01:24:41.125Z,12.59
2018-07-11T01:25:41.157Z,12.60
2018-07-11T01:26:41.188Z,12.57
2018-07-11T01:27:41.220Z,12.60
2018-07-11T01:28:41.253Z,12.62
2018-07-11T01:29:41.283Z,12.59
2018-07-11T01:30:41.316Z,12.60
2018-07-11T01:31:41.348Z,12.71
2018-07-11T01:32:41.380Z,12.72
2018-07-11T01:33:41.413Z,12.89
2018-07-11T01:34:41.447Z,12.85
2018-07-11T01:35:41.476Z,12.95
2018-07-11T01:36:41.508Z,13.10
2018-07-11T01:37:41.541Z,13.11
2018-07-11T01:38:41.571Z,13.28
2018-07-11T01:39:41.603Z,13.25
2018-07-11T01:40:41.635Z,13.36
2018-07-11T01:41:41.667Z,13.41
2018-07-11T01:42:41.699Z,13.32
2018-07-11T01:43:41.729Z,13.33
2018-07-11T01:44:41.762Z,13.45
2018-07-11T01:45:41.795Z,13.42
2018-07-11T01:46:41.827Z,13.38
2018-07-11T01:47:41.858Z,13.42
2018-07-11T01:48:41.892Z,13.49
2018-07-11T01:49:41.922Z,13.46
2018-07-11T01:50:41.954Z,13.46
2018-07-11T01:51:41.986Z,13.62
2018-07-11T01:52:42.020Z,13.60
2018-07-11T01:53:42.053Z,13.59
2018-07-11T01:54:42.090Z,13.46
2018-07-11T01:55:42.114Z,13.32
2018-07-11T01:56:42.146Z,13.23
2018-07-11T01:57:42.179Z,13.20
2018-07-11T01:58:42.211Z,13.20
2018-07-11T01:59:42.241Z,13.32
2018-07-11T02:00:42.274Z,13.33
2018-07-11T02:01:42.307Z,13.36
2018-07-11T02:02:42.339Z,13.38
2018-07-11T02:03:42.371Z,13.41
2018-07-11T02:04:42.407Z,13.29
2018-07-11T02:05:42.435Z,13.36
2018-07-11T02:06:42.468Z,13.36
2018-07-11T02:07:42.500Z,13.30
2018-07-11T02:08:42.533Z,13.30
2018-07-11T02:09:42.564Z,13.41
2018-07-11T02:10:42.597Z,13.45
2018-07-11T02:11:42.628Z,13.38
2018-07-11T02:12:42.660Z,13.59
2018-07-11T02:13:42.693Z,13.45
2018-07-11T02:14:42.726Z,13.60
2018-07-11T02:15:42.757Z,13.62
2018-07-11T02:16:42.790Z,13.67
2018-07-11T02:17:42.822Z,13.66
2018-07-11T02:18:42.854Z,13.62
2018-07-11T02:19:42.885Z,13.75
2018-07-11T02:20:42.922Z,13.75
2018-07-11T02:21:42.951Z,13.77
2018-07-11T02:22:42.986Z,13.67
2018-07-11T02:23:43.015Z,13.75
2018-07-11T02:24:43.048Z,13.70
2018-07-11T02:25:43.081Z,13.66
2018-07-11T02:26:43.113Z,13.63
2018-07-11T02:27:43.144Z,13.60
2018-07-11T02:28:43.177Z,13.59
2018-07-11T02:29:43.209Z,13.59
2018-07-11T02:30:43.242Z,13.55
2018-07-11T02:31:43.273Z,13.54
2018-07-11T02:32:43.307Z,13.55
2018-07-11T02:33:43.348Z,13.51
2018-07-11T02:34:43.371Z,13.46
2018-07-11T02:35:43.410Z,13.51
2018-07-11T02:36:43.436Z,13.51
2018-07-11T02:37:43.467Z,13.62
2018-07-11T02:38:43.499Z,13.63
2018-07-11T02:39:43.551Z,13.73
2018-07-11T02:40:43.564Z,13.77
2018-07-11T02:41:43.597Z,13.87
2018-07-11T02:42:43.631Z,13.92
2018-07-11T02:43:43.661Z,13.89
2018-07-11T02:44:43.694Z,14.00
2018-07-11T02:45:43.727Z,13.96
2018-07-11T02:46:43.761Z,13.89
2018-07-11T02:47:43.796Z,13.89
2018-07-11T02:48:43.823Z,13.87
2018-07-11T02:49:43.855Z,13.87
2018-07-11T02:50:43.889Z,13.89
2018-07-11T02:51:43.920Z,14.00
2018-07-11T02:52:43.954Z,13.99
2018-07-11T02:53:43.986Z,13.97
2018-07-11T02:54:44.019Z,13.92
2018-07-11T02:55:44.052Z,14.00
2018-07-11T02:56:44.083Z,14.04
2018-07-11T02:57:44.116Z,14.12
2018-07-11T02:58:44.148Z,14.03
2018-07-11T02:59:44.181Z,14.09
2018-07-11T03:00:44.216Z,14.14
2018-07-11T03:01:44.244Z,14.18
2018-07-11T03:02:44.279Z,14.25
2018-07-11T03:03:44.309Z,14.17
2018-07-11T03:04:44.346Z,14.21
2018-07-11T03:05:44.377Z,14.22
2018-07-11T03:06:44.408Z,14.24
2018-07-11T03:07:44.439Z,14.20
2018-07-11T03:08:44.473Z,14.25
2018-07-11T03:09:44.506Z,14.15
2018-07-11T03:10:44.540Z,14.20
2018-07-11T03:11:44.571Z,14.21
2018-07-11T03:12:44.602Z,14.15
2018-07-11T03:13:44.636Z,14.22
2018-07-11T03:14:44.669Z,14.14
2018-07-11T03:15:44.707Z,14.14
2018-07-11T03:16:44.732Z,14.18
2018-07-11T03:17:44.765Z,14.28
2018-07-11T03:18:44.798Z,14.25
2018-07-11T03:19:44.831Z,14.22
2018-07-11T03:20:44.865Z,14.21
2018-07-11T03:21:44.900Z,14.25
2018-07-11T03:22:44.931Z,14.28
2018-07-11T03:23:44.966Z,14.28
2018-07-11T03:24:44.994Z,14.29
2018-07-11T03:25:45.027Z,14.20
2018-07-11T03:26:45.061Z,14.28
2018-07-11T03:27:45.092Z,14.29
2018-07-11T03:28:45.125Z,14.40
2018-07-11T03:29:45.157Z,14.43
2018-07-11T03:30:45.191Z,14.46
2018-07-11T03:31:45.222Z,14.54
2018-07-11T03:32:45.258Z,14.61
2018-07-11T03:33:45.288Z,14.70
2018-07-11T03:34:45.320Z,14.68
2018-07-11T03:35:45.355Z,14.73
2018-07-11T03:36:45.386Z,14.70
2018-07-11T03:37:45.419Z,14.73
2018-07-11T03:38:45.453Z,14.86
2018-07-11T03:39:45.483Z,14.81
2018-07-11T03:40:45.517Z,14.86
2018-07-11T03:41:45.550Z,14.77
2018-07-11T03:42:45.583Z,14.80
2018-07-11T03:43:45.617Z,14.75
2018-07-11T03:44:45.651Z,14.80
2018-07-11T03:45:45.681Z,14.80
2018-07-11T03:46:45.714Z,14.75
2018-07-11T03:47:45.745Z,14.69
2018-07-11T03:48:45.779Z,14.68
2018-07-11T03:49:45.812Z,14.65
2018-07-11T03:50:45.845Z,14.62
2018-07-11T03:51:45.877Z,14.60
2018-07-11T03:52:45.911Z,14.64
2018-07-11T03:53:45.987Z,14.65
2018-07-11T03:54:45.977Z,14.69
2018-07-11T03:55:46.008Z,14.83
2018-07-11T03:56:46.041Z,14.88
2018-07-11T03:57:46.074Z,14.80
2018-07-11T03:58:46.108Z,14.83
2018-07-11T03:59:46.140Z,14.88
2018-07-11T04:00:46.173Z,14.92
2018-07-11T04:01:46.210Z,14.92
2018-07-11T04:02:46.240Z,14.86
2018-07-11T04:03:46.272Z,14.88
2018-07-11T04:04:46.325Z,14.92
2018-07-11T04:05:46.338Z,14.99
2018-07-11T04:06:46.372Z,15.03
2018-07-11T04:07:46.404Z,15.13
2018-07-11T04:08:46.437Z,14.99
2018-07-11T04:09:46.470Z,15.10
2018-07-11T04:10:46.504Z,15.03
2018-07-11T04:11:46.535Z,15.03
2018-07-11T04:12:46.570Z,14.95
2018-07-11T04:13:46.603Z,14.91
2018-07-11T04:14:46.635Z,14.89
2018-07-11T04:15:46.667Z,14.92
2018-07-11T04:16:46.705Z,14.96
2018-07-11T04:17:46.733Z,14.98
2018-07-11T04:18:46.768Z,15.01
2018-07-11T04:19:46.803Z,15.01
2018-07-11T04:20:46.832Z,15.02
2018-07-11T04:21:46.865Z,15.11
2018-07-11T04:22:46.900Z,15.09
2018-07-11T04:23:46.931Z,15.07
2018-07-11T04:24:46.967Z,15.03
2018-07-11T04:25:46.999Z,15.06
2018-07-11T04:26:47.032Z,15.07
2018-07-11T04:27:47.065Z,15.10
2018-07-11T04:28:47.110Z,15.13
2018-07-11T04:29:47.130Z,15.17
2018-07-11T04:30:47.167Z,15.21
2018-07-11T04:31:47.196Z,15.19
2018-07-11T04:32:47.230Z,15.13
2018-07-11T04:33:47.263Z,15.11
2018-07-11T04:34:47.296Z,15.03
2018-07-11T04:35:47.328Z,15.09
2018-07-11T04:36:47.363Z,15.13
2018-07-11T04:37:47.400Z,15.14
2018-07-11T04:38:47.430Z,15.19
2018-07-11T04:39:47.461Z,15.31
2018-07-11T04:40:47.494Z,15.25
2018-07-11T04:41:47.531Z,15.31
2018-07-11T04:42:47.561Z,15.21
2018-07-11T04:43:47.594Z,15.10
2018-07-11T04:44:47.627Z,15.06
2018-07-11T04:45:47.662Z,15.06
2018-07-11T04:46:47.696Z,15.16
2018-07-11T04:47:47.728Z,15.17
2018-07-11T04:48:47.763Z,15.13
2018-07-11T04:49:47.793Z,15.11
2018-07-11T04:50:47.828Z,15.07
2018-07-11T04:51:47.861Z,15.16
2018-07-11T04:52:47.961Z,15.09
2018-07-11T04:53:47.927Z,15.23
2018-07-11T04:54:47.964Z,15.21
2018-07-11T04:55:47.993Z,15.34
2018-07-11T04:56:48.027Z,15.31
2018-07-11T04:57:48.060Z,15.38
2018-07-11T04:58:48.137Z,15.44
2018-07-11T04:59:48.127Z,15.43
2018-07-11T05:00:48.160Z,15.41
2018-07-11T05:01:48.193Z,15.38
2018-07-11T05:02:48.228Z,15.39
2018-07-11T05:03:48.259Z,15.46
2018-07-11T05:04:48.326Z,15.57
2018-07-11T05:05:48.326Z,15.69
2018-07-11T05:06:48.360Z,15.75
2018-07-11T05:07:48.393Z,15.80
2018-07-11T05:08:48.427Z,15.87
2018-07-11T05:09:48.461Z,15.87
2018-07-11T05:10:48.536Z,15.96
2018-07-11T05:11:48.528Z,15.96
2018-07-11T05:12:48.562Z,15.97
2018-07-11T05:13:48.596Z,16.09
2018-07-11T05:14:48.630Z,16.11
2018-07-11T05:15:48.663Z,16.04
2018-07-11T05:16:48.697Z,16.07
2018-07-11T05:17:48.730Z,16.09
2018-07-11T05:18:48.764Z,16.07
2018-07-11T05:19:48.800Z,15.93
2018-07-11T05:20:48.832Z,15.93
2018-07-11T05:21:48.866Z,15.94
2018-07-11T05:22:48.900Z,16.08
2018-07-11T05:23:48.931Z,16.23
2018-07-11T05:24:48.966Z,16.21
2018-07-11T05:25:49.001Z,16.23
2018-07-11T05:26:49.035Z,16.30
2018-07-11T05:27:49.069Z,16.28
2018-07-11T05:28:49.105Z,16.24
2018-07-11T05:29:49.136Z,16.33
2018-07-11T05:30:49.169Z,16.33
2018-07-11T05:31:49.204Z,16.31
2018-07-11T05:32:49.241Z,16.33
2018-07-11T05:33:49.273Z,16.45
2018-07-11T05:34:49.306Z,16.46
2018-07-11T05:35:49.339Z,16.56
2018-07-11T05:36:49.373Z,16.58
2018-07-11T05:37:49.409Z,16.64
2018-07-11T05:38:49.443Z,16.81
2018-07-11T05:39:49.477Z,16.94
2018-07-11T05:40:49.514Z,16.97
2018-07-11T05:41:49.545Z,16.94
2018-07-11T05:42:49.683Z,17.08
2018-07-11T05:43:49.613Z,17.04
2018-07-11T05:44:49.703Z,17.04
2018-07-11T05:45:49.683Z,17.06
2018-07-11T05:46:49.718Z,17.08
2018-07-11T05:47:49.751Z,17.15
2018-07-11T05:48:49.785Z,17.12
2018-07-11T05:49:49.837Z,17.23
2018-07-11T05:50:49.856Z,17.23
2018-07-11T05:51:49.889Z,17.34
2018-07-11T05:52:49.923Z,17.34
2018-07-11T05:53:49.959Z,17.38
2018-07-11T05:54:49.993Z,17.51
2018-07-11T05:55:50.065Z,17.52
2018-07-11T05:56:50.061Z,17.58
2018-07-11T05:57:50.095Z,17.59
2018-07-11T05:58:50.131Z,17.63
2018-07-11T05:59:50.177Z,17.63
2018-07-11T06:00:50.200Z,17.66
2018-07-11T06:01:50.235Z,17.68
2018-07-11T06:02:50.271Z,17.78
2018-07-11T06:03:50.302Z,17.90
2018-07-11T06:04:50.342Z,17.96
2018-07-11T06:05:50.374Z,17.95
2018-07-11T06:06:50.409Z,17.99
2018-07-11T06:07:50.443Z,17.89
2018-07-11T06:08:50.477Z,17.84
2018-07-11T06:09:50.514Z,17.93
2018-07-11T06:10:50.548Z,17.96
2018-07-11T06:11:50.582Z,17.92
2018-07-11T06:12:50.617Z,18.05
2018-07-11T06:13:50.653Z,18.10
2018-07-11T06:14:50.691Z,18.08
2018-07-11T06:15:50.723Z,18.12
2018-07-11T06:16:50.760Z,18.08
2018-07-11T06:17:50.795Z,18.14
2018-07-11T06:18:50.831Z,18.32
2018-07-11T06:19:50.866Z,18.30
2018-07-11T06:20:50.900Z,18.26
2018-07-11T06:21:50.935Z,18.36
2018-07-11T06:22:50.971Z,18.63
2018-07-11T06:23:51.005Z,18.70
2018-07-11T06:24:51.041Z,18.82
2018-07-11T06:25:51.077Z,19.04
2018-07-11T06:26:51.114Z,19.18
2018-07-11T06:27:51.147Z,19.14
2018-07-11T06:28:51.186Z,19.19
2018-07-11T06:29:51.220Z,19.26
2018-07-11T06:30:51.255Z,19.40
2018-07-11T06:31:51.292Z,19.48
2018-07-11T06:32:51.327Z,19.48
2018-07-11T06:33:51.363Z,19.43
2018-07-11T06:36:33.986Z,19.55
2018-07-11T06:37:34.021Z,19.55
2018-07-11T06:38:34.061Z,19.50
2018-07-11T06:39:34.091Z,19.56
2018-07-11T06:40:34.129Z,19.71
2018-07-11T06:41:34.165Z,19.83
2018-07-11T06:42:34.203Z,20.06
2018-07-11T06:43:34.237Z,20.08
2018-07-11T06:44:34.361Z,20.03
2018-07-11T06:45:34.311Z,20.21
2018-07-11T06:46:34.348Z,20.23
2018-07-11T06:47:34.384Z,20.13
2018-07-11T06:48:34.420Z,19.96
2018-07-11T06:49:34.457Z,19.80
2018-07-11T06:50:34.498Z,19.56
2018-07-11T06:51:34.531Z,19.59
2018-07-11T06:52:34.569Z,19.73
2018-07-11T06:53:34.605Z,19.71
2018-07-11T06:54:34.641Z,19.94
2018-07-11T06:55:34.681Z,19.94
2018-07-11T06:56:34.716Z,20.13
2018-07-11T06:57:34.757Z,20.17
2018-07-11T06:58:34.789Z,20.32
2018-07-11T06:59:34.826Z,20.50
2018-07-11T07:00:34.862Z,20.89
2018-07-11T07:01:34.900Z,20.89
2018-07-11T07:02:34.939Z,21.10
2018-07-11T07:03:34.988Z,21.24
2018-07-11T07:04:35.013Z,21.25
2018-07-11T07:05:35.050Z,21.44
2018-07-11T07:06:35.089Z,21.52
2018-07-11T07:07:35.124Z,21.58
2018-07-11T07:08:35.161Z,21.40
2018-07-11T07:09:35.200Z,21.27
2018-07-11T07:10:35.239Z,21.27
2018-07-11T07:11:35.276Z,20.92
2018-07-11T07:12:35.313Z,20.61
2018-07-11T07:13:35.351Z,20.61
2018-07-11T07:14:35.393Z,20.62
2018-07-11T07:15:35.433Z,20.47
2018-07-11T07:16:35.481Z,20.72
2018-07-11T07:17:35.504Z,20.69
2018-07-11T07:18:35.541Z,20.89
2018-07-11T07:19:35.577Z,21.17
2018-07-11T07:20:35.616Z,21.25
2018-07-11T07:21:35.658Z,21.61
2018-07-11T07:22:35.796Z,21.90
2018-07-11T07:23:35.730Z,22.03
2018-07-11T07:24:35.767Z,22.03
2018-07-11T07:25:35.806Z,22.02
2018-07-11T07:26:35.844Z,22.30
2018-07-11T07:27:35.886Z,22.14
2018-07-11T07:28:35.919Z,21.27
2018-07-11T07:29:35.959Z,20.84
2018-07-11T07:30:35.997Z,20.94
2018-07-11T07:31:36.084Z,20.98
2018-07-11T07:32:36.074Z,21.13
2018-07-11T07:33:36.112Z,21.22
2018-07-11T07:34:36.186Z,21.10
2018-07-11T07:35:36.187Z,21.27
2018-07-11T07:36:36.228Z,21.59
2018-07-11T07:37:36.266Z,21.92
2018-07-11T07:38:36.305Z,22.25
2018-07-11T07:39:36.342Z,22.24
2018-07-11T07:40:36.382Z,21.65
2018-07-11T07:41:36.419Z,21.49
2018-07-11T07:42:36.458Z,21.62
2018-07-11T07:43:36.497Z,20.92
2018-07-11T07:44:36.535Z,20.70
2018-07-11T07:45:36.574Z,20.29
2018-07-11T07:46:36.614Z,19.83
2018-07-11T07:47:36.651Z,19.73
2018-07-11T07:48:36.689Z,19.73
2018-07-11T07:49:36.729Z,19.73
2018-07-11T07:50:36.767Z,19.62
2018-07-11T07:51:36.804Z,19.61
2018-07-11T07:52:36.843Z,19.44
2018-07-11T07:53:36.883Z,19.47
2018-07-11T07:54:36.919Z,19.26
2018-07-11T07:55:36.957Z,19.21
2018-07-11T07:56:36.994Z,19.29
2018-07-11T07:57:37.030Z,19.22
2018-07-11T07:58:37.068Z,19.25
2018-07-11T07:59:37.105Z,19.02
2018-07-11T08:00:37.228Z,19.14
2018-07-11T08:01:37.185Z,19.29
2018-07-11T08:02:37.218Z,19.37
2018-07-11T08:03:37.254Z,19.44
2018-07-11T08:04:37.292Z,19.56
2018-07-11T08:05:37.329Z,19.69
2018-07-11T08:06:37.367Z,19.77
2018-07-11T08:07:37.403Z,19.78
2018-07-11T08:08:37.440Z,19.76
2018-07-11T08:09:37.476Z,19.74
2018-07-11T08:10:37.515Z,19.80
2018-07-11T08:11:37.551Z,19.87
2018-07-11T08:12:37.648Z,19.77
2018-07-11T08:13:37.627Z,19.69
2018-07-11T08:14:37.662Z,19.74
2018-07-11T08:15:37.699Z,19.81
2018-07-11T08:16:37.736Z,19.61
2018-07-11T08:17:37.773Z,19.44
2018-07-11T08:18:37.810Z,19.47
2018-07-11T08:19:37.848Z,19.50
2018-07-11T08:20:37.883Z,19.54
2018-07-11T08:21:37.921Z,19.83
2018-07-11T08:22:37.958Z,19.77
2018-07-11T08:23:37.995Z,19.83
2018-07-11T08:24:38.033Z,19.92
2018-07-11T08:25:38.091Z,19.95
2018-07-11T08:26:38.123Z,20.02
2018-07-11T08:27:38.164Z,20.20
2018-07-11T08:28:38.200Z,20.33
2018-07-11T08:29:38.236Z,20.51
2018-07-11T08:30:38.277Z,20.70
2018-07-11T08:31:38.312Z,20.92
2018-07-11T08:32:38.329Z,21.17
2018-07-11T08:33:38.368Z,21.25
2018-07-11T08:34:38.416Z,21.28
2018-07-11T08:35:38.442Z,21.44
2018-07-11T08:36:38.480Z,21.40
2018-07-11T08:37:38.518Z,21.40
2018-07-11T08:38:38.555Z,21.28
2018-07-11T08:39:38.593Z,21.35
2018-07-11T08:40:38.630Z,21.29
2018-07-11T08:41:38.668Z,21.22
2018-07-11T08:42:38.707Z,21.25
2018-07-11T08:43:38.745Z,21.14
2018-07-11T08:44:38.783Z,20.88
2018-07-11T08:45:38.822Z,20.82
2018-07-11T08:46:38.860Z,20.87
2018-07-11T08:47:38.942Z,21.03
2018-07-11T08:48:38.936Z,21.21
2018-07-11T08:49:38.977Z,21.21
2018-07-11T08:50:39.014Z,21.13
2018-07-11T08:51:39.050Z,21.22
2018-07-11T08:52:39.091Z,21.17
2018-07-11T08:53:39.129Z,21.21
2018-07-11T08:54:39.165Z,21.34
2018-07-11T08:55:39.202Z,21.24
2018-07-11T08:56:39.240Z,21.17
2018-07-11T08:57:39.280Z,21.07
2018-07-11T08:58:39.318Z,20.89
2018-07-11T08:59:39.356Z,20.85
2018-07-11T09:00:39.395Z,20.74
2018-07-11T09:01:39.432Z,20.74
2018-07-11T09:02:39.489Z,20.39
2018-07-11T09:03:39.509Z,20.24
2018-07-11T09:04:39.546Z,20.32
2018-07-11T09:05:39.586Z,20.23
2018-07-11T09:06:39.623Z,20.05
2018-07-11T09:07:39.660Z,19.99
2018-07-11T09:08:39.699Z,20.16
2018-07-11T09:09:39.738Z,20.33
2018-07-11T09:10:39.856Z,20.38
2018-07-11T09:11:39.816Z,20.58
2018-07-11T09:12:39.850Z,20.74
2018-07-11T09:13:39.889Z,21.03
2018-07-11T09:14:39.929Z,21.17
2018-07-11T09:15:39.964Z,21.32
2018-07-11T09:16:40.004Z,21.54
2018-07-11T09:17:40.043Z,21.54
2018-07-11T09:18:40.081Z,21.58
2018-07-11T09:19:40.118Z,21.62
2018-07-11T09:20:40.157Z,21.56
2018-07-11T09:21:40.194Z,21.68
2018-07-11T09:22:40.233Z,21.58
2018-07-11T09:23:40.271Z,21.61
2018-07-11T09:24:40.308Z,21.65
2018-07-11T09:25:40.346Z,21.58
2018-07-11T09:26:40.386Z,21.31
2018-07-11T09:27:40.423Z,21.43
2018-07-11T09:28:40.461Z,21.53
2018-07-11T09:29:40.500Z,21.56
2018-07-11T09:30:40.581Z,21.54
2018-07-11T09:31:40.577Z,21.56
2018-07-11T09:32:40.616Z,21.25
2018-07-11T09:33:40.654Z,21.35
2018-07-11T09:34:40.693Z,21.58
2018-07-11T09:35:40.731Z,21.44
2018-07-11T09:36:40.769Z,21.54
2018-07-11T09:37:40.916Z,21.37
2018-07-11T09:38:40.847Z,21.54
2018-07-11T09:39:40.885Z,21.64
2018-07-11T09:40:40.928Z,21.91
2018-07-11T09:41:40.962Z,22.10
2018-07-11T09:42:41.001Z,22.22
2018-07-11T09:43:41.040Z,22.00
2018-07-11T09:44:41.079Z,22.09
2018-07-11T09:45:41.122Z,22.09
2018-07-11T09:46:41.159Z,21.92
2018-07-11T09:47:41.195Z,21.86
2018-07-11T09:48:41.236Z,21.58
2018-07-11T09:49:41.272Z,21.59
2018-07-11T09:50:41.310Z,21.72
2018-07-11T09:51:41.349Z,21.86
2018-07-11T09:52:41.389Z,22.24
2018-07-11T09:53:41.428Z,22.42
2018-07-11T09:54:41.467Z,22.62
2018-07-11T09:55:41.505Z,22.82
2018-07-11T09:56:41.544Z,23.05
2018-07-11T09:57:41.599Z,23.10
2018-07-11T09:58:41.627Z,22.88
2018-07-11T09:59:41.663Z,22.79
2018-07-11T10:00:41.704Z,23.00
2018-07-11T10:01:41.743Z,23.23
2018-07-11T10:02:41.782Z,23.13
2018-07-11T10:03:41.820Z,23.50
2018-07-11T10:04:41.861Z,23.79
2018-07-11T10:05:41.901Z,24.05
2018-07-11T10:06:41.941Z,23.88
2018-07-11T10:07:41.979Z,23.47
2018-07-11T10:08:42.021Z,23.40
2018-07-11T10:09:42.061Z,23.36
2018-07-11T10:10:42.101Z,23.02
2018-07-11T10:11:42.139Z,22.98
2018-07-11T10:12:42.180Z,23.05
2018-07-11T10:13:42.221Z,22.73
2018-07-11T10:14:42.262Z,22.49
2018-07-11T10:15:42.300Z,22.22
2018-07-11T10:16:42.341Z,22.15
2018-07-11T10:17:42.381Z,22.25
2018-07-11T10:18:42.424Z,22.37
2018-07-11T10:19:42.460Z,22.52
2018-07-11T10:20:42.501Z,22.62
2018-07-11T10:21:42.664Z,22.86
2018-07-11T10:22:42.581Z,22.95
2018-07-11T10:23:42.621Z,22.98
2018-07-11T10:24:42.661Z,23.05
2018-07-11T10:25:42.701Z,23.10
2018-07-11T10:26:42.741Z,23.31
2018-07-11T10:27:42.779Z,23.19
2018-07-11T10:28:42.820Z,23.42
2018-07-11T10:29:42.860Z,23.60
2018-07-11T10:30:42.900Z,23.95
2018-07-11T10:31:42.939Z,24.13
2018-07-11T10:32:42.980Z,24.57
2018-07-11T10:33:43.087Z,25.06
2018-07-11T10:34:43.062Z,25.38
2018-07-11T10:35:43.102Z,25.60
2018-07-11T10:36:43.144Z,25.33
2018-07-11T10:37:43.184Z,25.18
2018-07-11T10:38:43.224Z,25.25
2018-07-11T10:39:43.266Z,25.79
2018-07-11T10:40:43.307Z,26.23
2018-07-11T10:41:43.348Z,26.35
2018-07-11T10:42:43.590Z,26.33
2018-07-11T10:43:43.434Z,26.66
2018-07-11T10:44:43.472Z,26.50
2018-07-11T10:45:43.515Z,26.35
2018-07-11T10:46:43.557Z,26.13
2018-07-11T10:47:43.598Z,25.77
2018-07-11T10:48:43.641Z,25.18
2018-07-11T10:49:43.684Z,25.00
2018-07-11T10:50:43.726Z,24.87
2018-07-11T10:51:43.765Z,24.93
2018-07-11T10:52:43.808Z,25.05
2018-07-11T10:53:43.850Z,25.24
2018-07-11T10:54:43.892Z,25.50
2018-07-11T10:55:43.933Z,25.54
2018-07-11T10:56:43.974Z,25.73
2018-07-11T10:57:44.128Z,25.72
2018-07-11T10:58:44.058Z,27.00
2018-07-11T10:59:44.103Z,27.41
2018-07-11T11:01:05.025Z,27.43
2018-07-11T11:01:44.184Z,27.92
2018-07-11T11:02:44.238Z,27.24
2018-07-11T11:03:44.269Z,27.09
2018-07-11T11:04:44.377Z,27.40
2018-07-11T11:05:44.382Z,27.51
2018-07-11T11:06:44.398Z,27.94
2018-07-11T11:07:44.440Z,27.93
2018-07-11T11:08:44.482Z,28.12
2018-07-11T11:09:44.527Z,28.43
2018-07-11T11:10:44.571Z,28.34
2018-07-11T11:11:44.614Z,28.73
2018-07-11T11:13:44.806Z,28.48
2018-07-11T11:14:44.755Z,28.86
2018-07-11T11:15:44.804Z,28.59
2018-07-11T11:16:44.838Z,28.27
2018-07-11T11:17:44.876Z,28.27
2018-07-11T11:18:44.921Z,28.24
2018-07-11T11:19:44.964Z,28.14
2018-07-11T11:20:45.009Z,28.11
2018-07-11T11:21:45.053Z,28.36
2018-07-11T11:22:45.103Z,28.18
2018-07-11T11:23:45.140Z,28.89
2018-07-11T11:24:45.186Z,29.06
2018-07-11T11:25:45.314Z,29.16
2018-07-11T11:26:45.273Z,29.08
2018-07-11T11:27:45.316Z,28.90
2018-07-11T11:28:45.359Z,28.62
2018-07-11T11:29:45.403Z,28.52
2018-07-11T11:30:45.449Z,28.68
2018-07-11T11:31:45.493Z,28.22
2018-07-11T11:32:45.536Z,27.27
2018-07-11T11:33:45.582Z,26.60
2018-07-11T11:34:45.627Z,26.57
2018-07-11T11:35:45.791Z,25.90
2018-07-11T11:36:45.714Z,25.88
2018-07-11T11:37:45.759Z,25.72
2018-07-11T11:38:45.812Z,25.32
2018-07-11T11:39:45.847Z,25.40
2018-07-11T11:40:45.892Z,25.15
2018-07-11T11:41:45.967Z,25.08
2018-07-11T11:42:46.013Z,25.40
2018-07-11T11:43:46.022Z,25.72
2018-07-11T11:44:46.066Z,25.92
2018-07-11T11:45:46.109Z,25.99
2018-07-11T11:46:46.152Z,26.72
2018-07-11T11:47:46.195Z,28.51
2018-07-11T11:48:46.239Z,29.92
2018-07-11T11:49:46.284Z,30.05
2018-07-11T11:50:46.328Z,29.26
2018-07-11T11:51:46.372Z,28.74
2018-07-11T11:52:50.252Z,29.65
2018-07-11T11:53:46.461Z,30.20
2018-07-11T11:54:46.505Z,31.43
2018-07-11T11:55:46.551Z,31.50
2018-07-11T11:56:46.596Z,31.39
2018-07-11T11:57:46.643Z,29.46
2018-07-11T11:58:46.690Z,29.95
2018-07-11T11:59:47.970Z,30.65
2018-07-11T12:00:46.787Z,30.15
2018-07-11T12:04:37.819Z,28.92
2018-07-11T12:05:39.083Z,30.60
2018-07-11T12:06:37.917Z,31.81
2018-07-11T12:07:37.959Z,30.65
2018-07-11T12:09:40.623Z,32.56
2018-07-11T12:10:40.670Z,32.35
2018-07-11T12:11:40.719Z,31.92
2018-07-11T12:12:40.767Z,31.39
2018-07-11T12:13:41.041Z,30.83
2018-07-11T12:14:40.863Z,30.13
2018-07-11T12:15:40.913Z,30.04
2018-07-11T12:16:40.968Z,28.55
2018-07-11T12:17:41.009Z,29.42
2018-07-11T12:18:41.055Z,31.51
2018-07-11T12:19:41.126Z,30.69
2018-07-11T12:20:41.154Z,31.48
2018-07-11T12:21:41.202Z,32.03
2018-07-11T12:22:41.249Z,31.91
2018-07-11T12:23:41.298Z,31.76
2018-07-11T12:24:41.350Z,32.26
2018-07-11T12:25:41.398Z,30.47
2018-07-11T12:26:41.449Z,29.34
2018-07-11T12:27:41.497Z,28.37
2018-07-11T12:28:41.554Z,29.43
2018-07-11T12:29:41.599Z,31.17
2018-07-11T12:30:41.649Z,31.39
2018-07-11T12:31:41.700Z,31.38
2018-07-11T12:32:41.756Z,30.99
2018-07-11T12:33:41.800Z,31.31
2018-07-11T12:34:41.851Z,30.00
2018-07-11T12:35:41.905Z,29.92
2018-07-11T12:36:41.953Z,30.07
2018-07-11T12:37:42.004Z,29.43
2018-07-11T12:38:42.051Z,29.42
2018-07-11T12:39:42.100Z,29.64
2018-07-11T12:40:42.151Z,29.70
2018-07-11T12:41:42.201Z,29.68
2018-07-11T12:42:42.250Z,29.33
2018-07-11T12:43:42.300Z,29.70
2018-07-11T12:44:42.348Z,29.24
2018-07-11T12:45:42.395Z,28.77
2018-07-11T12:47:42.490Z,28.34
2018-07-11T12:48:42.538Z,27.99
2018-07-11T12:49:42.585Z,27.51
2018-07-11T12:50:42.638Z,27.43
2018-07-11T12:51:42.680Z,27.55
2018-07-11T12:52:42.725Z,27.44
2018-07-11T12:53:42.772Z,26.84
2018-07-11T12:54:42.825Z,26.85
2018-07-11T12:55:42.864Z,26.05
2018-07-11T12:56:42.908Z,25.82
2018-07-11T12:57:42.958Z,26.33
2018-07-11T12:58:42.999Z,25.91
2018-07-11T12:59:43.044Z,25.99
2018-07-11T13:00:43.090Z,28.14